createdAt,value
2023-12-08T00:26:34.396Z,1010.1
2023-12-08T00:55:00.712Z,1010.05
2023-12-08T01:23:39.242Z,1010.01
2023-12-08T01:52:18.024Z,1009.77
2023-12-08T02:20:44.539Z,1009.89
2023-12-08T03:17:48.732Z,1010.01
2023-12-08T03:46:19.649Z,1009.47
2023-12-08T04:15:06.022Z,1009.05
2023-12-08T04:43:39.669Z,1009.26
2023-12-08T05:12:13.920Z,1009.27
2023-12-08T06:09:15.985Z,1009.34
2023-12-08T06:37:37.375Z,1009.44
2023-12-08T07:06:05.262Z,1009.56
2023-12-08T07:34:28.755Z,1009.53
2023-12-08T08:03:03.367Z,1009.69
2023-12-08T08:31:18.389Z,1009.54
2023-12-08T08:59:53.754Z,1009.9
2023-12-08T09:28:32.410Z,1010.18
2023-12-08T09:57:02.281Z,1010.17
2023-12-08T10:25:26.736Z,1009.89
2023-12-08T10:53:48.009Z,1009.95
2023-12-08T11:22:22.719Z,1009.93
2023-12-08T11:50:39.363Z,1010
2023-12-08T12:19:05.971Z,1010.01
2023-12-08T12:47:32.080Z,1009.96
2023-12-08T13:15:50.966Z,1010.14
2023-12-08T13:44:14.049Z,1010.24
2023-12-08T14:12:45.001Z,1010.51
2023-12-08T14:40:47.842Z,1010.91
2023-12-08T15:09:09.483Z,1011.3
2023-12-08T15:37:46.588Z,1011.51
2023-12-08T16:06:06.248Z,1011.81
2023-12-08T16:34:27.312Z,1012.2
2023-12-08T17:02:52.040Z,1012.41
2023-12-08T17:31:26.748Z,1012.75
2023-12-08T18:00:04.063Z,1012.94
2023-12-08T18:56:34.544Z,1013.27
2023-12-08T19:25:05.744Z,1013.35
2023-12-08T19:53:30.855Z,1013.74
2023-12-08T20:21:51.155Z,1014.06
2023-12-08T21:18:35.915Z,1014.54
2023-12-08T21:47:01.194Z,1014.63
2023-12-08T22:15:23.261Z,1014.65
2023-12-08T22:43:52.535Z,1014.67
2023-12-08T23:40:50.052Z,1014.85
